Time;durP1;ratioP1;P1;durP2;ratioP2;P2;SDS_P1;SDS_P2;PMS_P1;PMS_P2;Temp;Humidity;BMP_temperature;BMP_pressure;BME280_temperature;BME280_humidity;BME280_pressure;Samples;Min_cycle;Max_cycle;Signal;HPM_P1;HPM_P2
2023/03/29 00:02:47;;;;;;;8.65;4.20;;;;;;;;;;12815456;19;19910;-69
2023/03/29 00:07:22;;;;;;;;;;;;;;;;;;12813639;19;20461;-68
2023/03/29 00:17:33;;;;;;;13.40;5.63;;;;;;;;;;12806361;19;20296;-69
2023/03/29 00:22:45;;;;;;;15.38;5.18;;;;;;;;;;12817431;19;20425;-69
2023/03/29 00:27:47;;;;;;;14.43;4.53;;;;;;;;;;12826573;19;20420;-68
2023/03/29 00:38:58;;;;;;;11.23;3.75;;;;;;;;;;12825950;19;20446;-69
2023/03/29 00:43:56;;;;;;;11.23;4.72;;;;;;;;;;12826821;19;20019;-69
2023/03/29 00:48:42;;;;;;;14.45;5.50;;;;;;;;;;12826107;19;20314;-68
2023/03/29 01:00:03;;;;;;;16.42;6.18;;;;;;;;;;12817638;19;20011;-68
2023/03/29 01:05:47;;;;;;;10.45;4.10;;;;;;;;;;12823179;19;20445;-68
2023/03/29 01:11:07;;;;;;;12.50;4.93;;;;;;;;;;12825508;19;20613;-68
2023/03/29 01:16:23;;;;;;;14.60;5.57;;;;;;;;;;12817639;19;20018;-68
2023/03/29 01:21:54;;;;;;;14.82;5.85;;;;;;;;;;12813581;19;20449;-68
2023/03/29 01:33:42;;;;;;;11.90;4.93;;;;;;;;;;12821293;19;20434;-68
2023/03/29 01:38:51;;;;;;;8.80;3.85;;;;;;;;;;12823088;19;20369;-68
2023/03/29 01:44:09;;;;;;;9.57;4.30;;;;;;;;;;12825765;19;20415;-68
2023/03/29 01:48:58;;;;;;;16.08;5.45;;;;;;;;;;12823827;19;20517;-68
2023/03/29 01:54:00;;;;;;;12.55;5.18;;;;;;;;;;12814641;19;20015;-68
2023/03/29 01:59:14;;;;;;;11.68;4.60;;;;;;;;;;12817187;19;20525;-68
2023/03/29 02:04:52;;;;;;;14.32;5.15;;;;;;;;;;12815247;19;20433;-68
2023/03/29 02:09:56;;;;;;;14.77;5.68;;;;;;;;;;12815610;19;20296;-68
2023/03/29 02:21:50;;;;;;;10.50;4.25;;;;;;;;;;12813799;19;20433;-68
2023/03/29 02:26:49;;;;;;;11.30;4.55;;;;;;;;;;12811166;19;20015;-68
2023/03/29 02:37:50;;;;;;;10.85;4.50;;;;;;;;;;12813887;19;20010;-67
2023/03/29 02:42:58;;;;;;;9.63;3.92;;;;;;;;;;12813113;19;20429;-68
2023/03/29 02:47:47;;;;;;;13.43;4.10;;;;;;;;;;12812902;19;20360;-68
2023/03/29 02:52:59;;;;;;;13.43;5.57;;;;;;;;;;12814333;19;20501;-68
2023/03/29 02:57:57;;;;;;;13.73;5.43;;;;;;;;;;12814903;19;20302;-68
2023/03/29 03:02:46;;;;;;;17.40;7.38;;;;;;;;;;12811805;19;20438;-68
2023/03/29 03:07:06;;;;;;;15.45;6.80;;;;;;;;;;12812284;19;20323;-69
2023/03/29 03:12:09;;;;;;;14.63;6.00;;;;;;;;;;12815227;19;20038;-68
2023/03/29 03:18:04;;;;;;;12.30;5.70;;;;;;;;;;12808992;19;20011;-68
2023/03/29 03:22:48;;;;;;;16.83;6.00;;;;;;;;;;12816154;19;20327;-68
2023/03/29 03:34:46;;;;;;;13.40;5.65;;;;;;;;;;12709154;19;2005122;-68
2023/03/29 03:39:46;;;;;;;13.10;5.60;;;;;;;;;;12809100;19;20333;-68
2023/03/29 03:44:12;;;;;;;15.10;7.15;;;;;;;;;;12810024;19;20319;-68
2023/03/29 03:54:45;;;;;;;15.15;6.32;;;;;;;;;;12806966;19;19923;-69
2023/03/29 03:59:47;;;;;;;17.45;6.60;;;;;;;;;;12808953;19;20395;-68
2023/03/29 04:11:14;;;;;;;30.00;14.45;;;;;;;;;;12807325;19;20298;-68
2023/03/29 04:15:48;;;;;;;13.60;6.90;;;;;;;;;;12808072;19;20404;-69
2023/03/29 04:26:46;;;;;;;18.30;8.00;;;;;;;;;;12806664;19;20356;-68
2023/03/29 04:31:15;;;;;;;23.15;8.95;;;;;;;;;;12804666;19;20425;-68
2023/03/29 04:35:43;;;;;;;28.10;9.65;;;;;;;;;;12808789;19;20441;-69
2023/03/29 04:46:17;;;;;;;18.67;8.70;;;;;;;;;;12717929;19;2005206;-69
2023/03/29 04:50:54;;;;;;;27.40;9.65;;;;;;;;;;12818434;19;20444;-68
2023/03/29 05:01:40;;;;;;;28.50;10.07;;;;;;;;;;12820759;19;20314;-68
2023/03/29 05:07:01;;;;;;;25.92;9.52;;;;;;;;;;12820813;19;20418;-70
2023/03/29 05:12:02;;;;;;;27.55;11.15;;;;;;;;;;12823280;19;20417;-68
2023/03/29 05:16:31;;;;;;;29.83;11.15;;;;;;;;;;12825535;19;20426;-69
2023/03/29 05:22:17;;;;;;;32.70;12.82;;;;;;;;;;12824023;19;20476;-68
2023/03/29 05:27:26;;;;;;;31.05;12.52;;;;;;;;;;12824161;19;20461;-67
2023/03/29 05:32:14;;;;;;;28.17;11.57;;;;;;;;;;12824186;19;20438;-68
2023/03/29 05:42:32;;;;;;;59.72;20.55;;;;;;;;;;12820572;19;20066;-68
2023/03/29 05:47:45;;;;;;;80.95;33.65;;;;;;;;;;12821230;19;20319;-68
2023/03/29 05:52:11;;;;;;;60.63;27.30;;;;;;;;;;12822314;19;20473;-68
2023/03/29 05:57:25;;;;;;;47.45;22.05;;;;;;;;;;12822749;19;20469;-69
2023/03/29 06:02:51;;;;;;;47.15;19.33;;;;;;;;;;12820329;19;20425;-69
2023/03/29 06:08:07;;;;;;;36.10;16.63;;;;;;;;;;12814623;19;21027;-67
2023/03/29 06:12:42;;;;;;;44.60;17.17;;;;;;;;;;12815534;19;20307;-68
2023/03/29 06:23:20;;;;;;;33.30;14.65;;;;;;;;;;12814896;19;21032;-68
2023/03/29 06:28:14;;;;;;;34.10;14.95;;;;;;;;;;12819437;19;20015;-68
2023/03/29 06:33:44;;;;;;;32.25;15.57;;;;;;;;;;12825243;19;20375;-68
2023/03/29 06:38:50;;;;;;;33.15;14.75;;;;;;;;;;12811288;19;20598;-68
2023/03/29 06:43:20;;;;;;;31.73;13.68;;;;;;;;;;12813138;19;20322;-68
2023/03/29 06:48:23;;;;;;;24.95;12.07;;;;;;;;;;12813406;19;20045;-68
2023/03/29 06:53:35;;;;;;;28.55;13.25;;;;;;;;;;12807626;19;20437;-68
2023/03/29 06:58:50;;;;;;;22.92;12.38;;;;;;;;;;12804131;19;20593;-67
2023/03/29 07:03:26;;;;;;;26.23;13.15;;;;;;;;;;12806320;19;20430;-67
2023/03/29 07:13:23;;;;;;;27.55;15.10;;;;;;;;;;12805492;19;20438;-68
2023/03/29 07:18:12;;;;;;;27.42;12.57;;;;;;;;;;12814568;19;20348;-67
2023/03/29 07:23:42;;;;;;;25.42;11.43;;;;;;;;;;12818596;19;20006;-67
2023/03/29 07:34:28;;;;;;;23.35;9.77;;;;;;;;;;12807325;19;20015;-67
2023/03/29 07:39:11;;;;;;;10.30;6.20;;;;;;;;;;12809351;19;20318;-69
2023/03/29 07:43:55;;;;;;;16.08;7.35;;;;;;;;;;12810588;19;20007;-67
2023/03/29 07:49:05;;;;;;;11.77;4.50;;;;;;;;;;12809654;19;20388;-68
2023/03/29 07:54:05;;;;;;;9.23;4.60;;;;;;;;;;12809091;19;20131;-68
2023/03/29 08:06:02;;;;;;;7.72;3.67;;;;;;;;;;12706725;19;2005836;-68
2023/03/29 08:10:43;;;;;;;10.15;4.18;;;;;;;;;;12808262;19;20432;-67
2023/03/29 08:15:09;;;;;;;10.95;4.55;;;;;;;;;;12820104;19;20022;-67
2023/03/29 08:26:08;;;;;;;25.05;12.85;;;;;;;;;;12718958;19;2005080;-67
2023/03/29 08:30:51;;;;;;;43.03;18.92;;;;;;;;;;12820504;19;20311;-67
2023/03/29 08:35:21;;;;;;;46.75;18.80;;;;;;;;;;12818962;19;20596;-67
2023/03/29 08:40:51;;;;;;;28.02;11.38;;;;;;;;;;12821253;19;20433;-66
2023/03/29 08:46:42;;;;;;;15.93;8.13;;;;;;;;;;12819377;19;20302;-67
2023/03/29 08:51:50;;;;;;;6.50;3.78;;;;;;;;;;12820215;19;20422;-67
2023/03/29 09:02:56;;;;;;;14.98;5.72;;;;;;;;;;12818174;19;20437;-67
2023/03/29 09:07:19;;;;;;;48.10;19.20;;;;;;;;;;12818221;19;20514;-68
2023/03/29 09:18:46;;;;;;;7.40;4.05;;;;;;;;;;12717271;19;2005517;-67
2023/03/29 09:23:43;;;;;;;9.88;4.68;;;;;;;;;;12817273;19;20344;-67
2023/03/29 09:29:24;;;;;;;9.77;4.55;;;;;;;;;;12822511;19;20781;-67
2023/03/29 09:34:53;;;;;;;8.23;3.97;;;;;;;;;;12820655;19;20006;-68
2023/03/29 09:39:42;;;;;;;11.90;3.67;;;;;;;;;;12824325;19;20031;-68
2023/03/29 09:44:49;;;;;;;8.93;3.80;;;;;;;;;;12824106;19;20863;-67
2023/03/29 09:50:46;;;;;;;15.13;6.57;;;;;;;;;;12719888;19;2005962;-68
2023/03/29 09:55:47;;;;;;;12.80;5.45;;;;;;;;;;12825428;19;20078;-68
2023/03/29 10:06:51;;;;;;;5.65;2.92;;;;;;;;;;12814685;19;20461;-68
2023/03/29 10:12:01;;;;;;;19.65;9.40;;;;;;;;;;12720314;19;2005360;-68
2023/03/29 10:28:46;;;;;;;6.15;3.38;;;;;;;;;;12812294;19;20341;-68
2023/03/29 10:34:15;;;;;;;10.63;5.05;;;;;;;;;;12821118;19;20314;-68
2023/03/29 10:39:18;;;;;;;10.07;4.22;;;;;;;;;;12820873;19;20456;-68
2023/03/29 10:45:17;;;;;;;5.25;2.28;;;;;;;;;;12820788;19;20369;-68
2023/03/29 10:50:15;;;;;;;4.90;2.55;;;;;;;;;;12815317;19;20434;-68
2023/03/29 11:01:06;;;;;;;3.78;1.60;;;;;;;;;;12817977;19;20014;-68
2023/03/29 11:06:41;;;;;;;4.72;2.42;;;;;;;;;;12818262;19;20318;-67
2023/03/29 11:18:25;;;;;;;6.50;3.95;;;;;;;;;;12817128;19;20433;-67
2023/03/29 11:41:42;;;;;;;6.32;3.20;;;;;;;;;;12816204;19;20339;-67
2023/03/29 11:52:52;;;;;;;4.60;1.80;;;;;;;;;;12827678;19;20303;-68
2023/03/29 11:57:50;;;;;;;8.88;5.10;;;;;;;;;;12821089;19;20015;-67
2023/03/29 12:08:55;;;;;;;5.47;2.70;;;;;;;;;;12824056;19;20021;-67
2023/03/29 12:14:14;;;;;;;11.73;5.43;;;;;;;;;;12820783;19;20299;-68
2023/03/29 12:18:55;;;;;;;4.28;2.05;;;;;;;;;;12820710;19;20777;-68
2023/03/29 12:23:23;;;;;;;;;;;;;;;;;;12820751;19;20425;-68
2023/03/29 12:28:52;;;;;;;2.40;1.50;;;;;;;;;;12819054;19;20319;-68
2023/03/29 12:34:11;;;;;;;3.58;1.92;;;;;;;;;;12818669;19;20485;-67
2023/03/29 12:39:48;;;;;;;25.15;15.13;;;;;;;;;;12824350;19;20339;-67
2023/03/29 12:44:24;;;;;;;18.98;10.52;;;;;;;;;;12827170;19;20857;-67
2023/03/29 12:48:56;;;;;;;12.55;7.85;;;;;;;;;;12828957;19;20384;-67
2023/03/29 12:54:25;;;;;;;3.65;1.75;;;;;;;;;;12828451;19;20438;-68
2023/03/29 13:05:44;;;;;;;6.68;3.47;;;;;;;;;;12818149;19;20510;-67
2023/03/29 13:11:20;;;;;;;4.63;2.03;;;;;;;;;;12819359;19;20509;-68
2023/03/29 13:16:48;;;;;;;5.07;1.50;;;;;;;;;;12817903;19;20916;-66
2023/03/29 13:22:04;;;;;;;5.53;2.92;;;;;;;;;;12818511;19;20371;-67
2023/03/29 13:32:47;;;;;;;27.15;14.00;;;;;;;;;;12816456;19;20382;-68
2023/03/29 13:37:56;;;;;;;6.32;2.92;;;;;;;;;;12806393;19;20038;-68
2023/03/29 13:43:09;;;;;;;7.68;5.28;;;;;;;;;;12802356;19;20029;-67
2023/03/29 13:47:46;;;;;;;9.27;5.30;;;;;;;;;;12798056;19;20362;-68
2023/03/29 13:53:06;;;;;;;17.83;9.95;;;;;;;;;;12800223;19;20490;-67
2023/03/29 13:58:36;;;;;;;6.22;3.47;;;;;;;;;;12792468;19;20363;-67
2023/03/29 14:03:28;;;;;;;11.52;6.15;;;;;;;;;;12799858;19;20347;-67
2023/03/29 14:09:09;;;;;;;9.38;5.40;;;;;;;;;;12799291;19;19998;-67
2023/03/29 14:14:16;;;;;;;7.03;4.50;;;;;;;;;;12795829;19;20430;-67
2023/03/29 14:19:44;;;;;;;8.88;3.08;;;;;;;;;;12797175;19;21111;-67
2023/03/29 17:43:18;;;;;;;23.98;12.35;;;;;;;;;;12822989;19;20469;-67
2023/03/29 17:48:27;;;;;;;25.35;12.60;;;;;;;;;;12826344;19;20334;-67
2023/03/29 17:53:48;;;;;;;34.33;17.15;;;;;;;;;;12822025;19;20311;-67
2023/03/29 17:58:43;;;;;;;37.28;16.80;;;;;;;;;;12823344;19;20035;-68
2023/03/29 18:09:47;;;;;;;37.38;14.88;;;;;;;;;;12814049;19;20570;-69
2023/03/29 18:14:46;;;;;;;29.98;12.70;;;;;;;;;;12821794;19;20396;-67
2023/03/29 18:25:01;;;;;;;24.00;9.40;;;;;;;;;;12821936;19;20574;-67
2023/03/29 18:29:54;;;;;;;14.73;8.00;;;;;;;;;;12821072;19;20416;-68
2023/03/29 18:34:25;;;;;;;16.05;7.40;;;;;;;;;;12822218;19;20303;-68
2023/03/29 18:45:11;;;;;;;22.38;9.65;;;;;;;;;;12709729;19;2005078;-67
2023/03/29 18:50:26;;;;;;;33.33;14.75;;;;;;;;;;12812666;19;20435;-67
2023/03/29 19:02:29;;;;;;;102.53;32.38;;;;;;;;;;12812617;19;20336;-68
2023/03/29 19:07:07;;;;;;;47.63;20.88;;;;;;;;;;12813796;19;20038;-67
2023/03/29 19:18:06;;;;;;;39.30;17.05;;;;;;;;;;12818660;19;20010;-68
2023/03/29 19:23:04;;;;;;;28.10;13.43;;;;;;;;;;12817697;19;20355;-67
2023/03/29 19:27:42;;;;;;;55.00;18.92;;;;;;;;;;12819051;19;20376;-67
2023/03/29 19:32:20;;;;;;;54.33;22.73;;;;;;;;;;12819111;19;20534;-67
2023/03/29 19:37:07;;;;;;;51.50;20.63;;;;;;;;;;12815447;19;20446;-70
2023/03/29 19:41:42;;;;;;;44.70;20.52;;;;;;;;;;12818963;19;20035;-67
2023/03/29 19:52:47;;;;;;;62.53;26.50;;;;;;;;;;12808503;19;20489;-67
2023/03/29 19:57:43;;;;;;;76.05;29.00;;;;;;;;;;12808033;19;20035;-68
2023/03/29 20:02:42;;;;;;;246.45;54.97;;;;;;;;;;12816836;19;20307;-68
2023/03/29 20:13:19;;;;;;;73.45;27.45;;;;;;;;;;12827880;19;20444;-67
2023/03/29 20:18:08;;;;;;;151.45;40.40;;;;;;;;;;12828472;19;20484;-68
2023/03/29 20:29:23;;;;;;;89.03;27.00;;;;;;;;;;12719114;19;2006124;-67
2023/03/29 20:34:17;;;;;;;89.88;28.60;;;;;;;;;;12820538;19;20507;-68
2023/03/29 20:38:46;;;;;;;104.55;36.60;;;;;;;;;;12821038;19;20419;-67
2023/03/29 20:49:41;;;;;;;57.97;18.35;;;;;;;;;;12797816;19;20431;-68
2023/03/29 20:54:41;;;;;;;55.25;19.33;;;;;;;;;;12799727;19;20395;-67
2023/03/29 21:05:46;;;;;;;79.75;23.42;;;;;;;;;;12817590;19;20023;-67
2023/03/29 21:10:17;;;;;;;66.85;21.75;;;;;;;;;;12819495;19;20385;-67
2023/03/29 21:26:22;;;;;;;58.15;17.73;;;;;;;;;;12817224;19;20319;-68
2023/03/29 21:32:00;;;;;;;43.92;16.35;;;;;;;;;;12818554;19;20019;-67
2023/03/29 21:37:05;;;;;;;52.45;18.27;;;;;;;;;;12721063;19;2004932;-67
2023/03/29 21:42:23;;;;;;;48.85;17.83;;;;;;;;;;12826093;19;20344;-68
2023/03/29 21:59:04;;;;;;;58.20;19.27;;;;;;;;;;12814123;19;20296;-67
2023/03/29 22:03:42;;;;;;;44.97;16.48;;;;;;;;;;12816339;19;20014;-67
2023/03/29 22:09:00;;;;;;;46.00;17.02;;;;;;;;;;12815834;19;20328;-67
2023/03/29 22:14:42;;;;;;;49.00;17.20;;;;;;;;;;12814688;19;20390;-67
2023/03/29 22:19:13;;;;;;;36.17;15.25;;;;;;;;;;12813196;19;20481;-67
2023/03/29 22:30:19;;;;;;;37.30;14.95;;;;;;;;;;12818068;19;20047;-67
2023/03/29 22:35:21;;;;;;;38.58;15.45;;;;;;;;;;12819536;19;20318;-67
2023/03/29 22:40:16;;;;;;;39.58;16.83;;;;;;;;;;12815470;19;20307;-67
2023/03/29 22:44:58;;;;;;;36.83;14.43;;;;;;;;;;12823309;19;20089;-68
2023/03/29 22:55:45;;;;;;;34.17;11.70;;;;;;;;;;12822280;19;20493;-69
2023/03/29 23:00:19;;;;;;;23.40;10.60;;;;;;;;;;12813182;19;20006;-67
2023/03/29 23:04:44;;;;;;;25.25;10.88;;;;;;;;;;12818835;19;20296;-67
2023/03/29 23:15:41;;;;;;;35.53;13.05;;;;;;;;;;12815428;19;20421;-67
2023/03/29 23:20:48;;;;;;;26.92;11.02;;;;;;;;;;12817788;19;20437;-67
2023/03/29 23:25:44;;;;;;;18.90;8.27;;;;;;;;;;12817881;19;20414;-68
2023/03/29 23:31:16;;;;;;;20.70;8.50;;;;;;;;;;12811415;19;20307;-67
2023/03/29 23:36:55;;;;;;;21.25;9.80;;;;;;;;;;12809495;19;20319;-68
2023/03/29 23:48:06;;;;;;;24.65;10.43;;;;;;;;;;12822967;19;21007;-68
2023/03/29 23:53:02;;;;;;;21.50;9.88;;;;;;;;;;12830540;19;20303;-67
2023/03/29 23:57:47;;;;;;;23.30;9.45;;;;;;;;;;12828501;19;20010;-67
